Time;durP1;ratioP1;P1;durP2;ratioP2;P2;SDS_P1;SDS_P2;PMS_P1;PMS_P2;Temp;Humidity;BMP_temperature;BMP_pressure;BME280_temperature;BME280_humidity;BME280_pressure;Samples;Min_cycle;Max_cycle;Signal;HPM_P1;HPM_P2
2021/06/22 00:01:32;;;;;;;;;;;27.40;46.20;;;;;;1606335;73;781;-75
2021/06/22 00:03:34;;;;;;;;;;;27.40;45.90;;;;;;1566512;74;1212;-74
2021/06/22 00:05:36;;;;;;;;;;;27.40;46.00;;;;;;1576396;74;1936;-73
2021/06/22 00:07:37;;;;;;;;;;;27.40;46.00;;;;;;1577104;74;777;-73
2021/06/22 00:09:39;;;;;;;;;;;27.40;45.90;;;;;;1578161;74;907;-75
2021/06/22 00:11:41;;;;;;;;;;;27.40;45.90;;;;;;1575886;74;762;-73
2021/06/22 00:13:43;;;;;;;;;;;27.40;45.90;;;;;;1578285;74;1098;-75
2021/06/22 00:15:45;;;;;;;;;;;27.40;46.00;;;;;;1575101;74;761;-74
2021/06/22 00:17:47;;;;;;;;;;;27.50;45.90;;;;;;1574865;74;759;-73
2021/06/22 00:19:49;;;;;;;;;;;27.40;46.00;;;;;;1580971;74;742;-72
2021/06/22 00:21:51;;;;;;;;;;;27.40;46.30;;;;;;1578531;74;1132;-75
2021/06/22 00:23:52;;;;;;;;;;;27.40;46.20;;;;;;1574544;74;944;-72
2021/06/22 00:25:56;;;;;;;;;;;27.40;46.40;;;;;;1581312;74;1938;-72
2021/06/22 00:27:58;;;;;;;;;;;27.40;46.30;;;;;;1582030;74;723;-73
2021/06/22 00:29:59;;;;;;;;;;;27.50;46.30;;;;;;1581099;74;963;-73
2021/06/22 00:32:01;;;;;;;;;;;27.50;46.30;;;;;;1581447;74;1148;-73
2021/06/22 00:34:03;;;;;;;;;;;27.40;46.20;;;;;;1587445;74;726;-74
2021/06/22 00:36:05;;;;;;;;;;;27.40;46.30;;;;;;1585276;74;691;-72
2021/06/22 00:38:07;;;;;;;;;;;27.40;46.10;;;;;;1588463;74;759;-70
2021/06/22 00:40:10;;;;;;;;;;;27.50;46.10;;;;;;1592516;74;694;-72
2021/06/22 00:42:12;;;;;;;;;;;27.40;46.10;;;;;;1589866;74;1142;-72
2021/06/22 00:44:14;;;;;;;;;;;27.40;46.10;;;;;;1597029;74;724;-73
2021/06/22 00:46:16;;;;;;;;;;;27.50;46.00;;;;;;1592367;74;1945;-71
2021/06/22 00:48:17;;;;;;;;;;;27.40;46.00;;;;;;1578149;74;743;-73
2021/06/22 00:50:19;;;;;;;;;;;27.40;46.00;;;;;;1582340;74;748;-70
2021/06/22 00:52:23;;;;;;;;;;;27.50;46.10;;;;;;1583943;74;1157;-72
2021/06/22 00:54:25;;;;;;;;;;;27.40;46.00;;;;;;1589121;74;1775;-72
2021/06/22 00:56:28;;;;;;;;;;;27.40;46.00;;;;;;1582367;74;782;-73
2021/06/22 00:58:30;;;;;;;;;;;27.40;46.00;;;;;;1564385;74;963;-73
2021/06/22 01:00:32;;;;;;;;;;;27.40;46.00;;;;;;1582394;74;774;-72
2021/06/22 01:02:34;;;;;;;;;;;27.40;46.00;;;;;;1576515;74;1171;-72
2021/06/22 01:04:36;;;;;;;;;;;27.40;46.00;;;;;;1572662;74;769;-71
2021/06/22 01:06:38;;;;;;;;;;;27.40;46.00;;;;;;1582014;74;1927;-71
2021/06/22 01:08:40;;;;;;;;;;;27.50;46.00;;;;;;1570738;74;803;-73
2021/06/22 01:10:42;;;;;;;;;;;27.40;46.00;;;;;;1576495;74;740;-71
2021/06/22 01:12:44;;;;;;;;;;;27.40;46.00;;;;;;1572177;74;1145;-72
2021/06/22 01:14:46;;;;;;;;;;;27.40;46.00;;;;;;1582754;74;718;-72
2021/06/22 01:16:48;;;;;;;;;;;27.40;46.00;;;;;;1583699;74;704;-72
2021/06/22 01:18:50;;;;;;;;;;;27.40;46.00;;;;;;1584956;74;751;-72
2021/06/22 01:20:58;;;;;;;;;;;27.40;46.00;;;;;;1552357;75;1227;-73
2021/06/22 01:23:00;;;;;;;;;;;27.40;45.90;;;;;;1576984;74;1048;-74
2021/06/22 01:25:02;;;;;;;;;;;27.50;46.00;;;;;;1592326;74;776;-73
2021/06/22 01:27:04;;;;;;;;;;;27.40;46.00;;;;;;1585760;74;1947;-73
2021/06/22 01:29:06;;;;;;;;;;;27.40;45.90;;;;;;1583843;74;733;-73
2021/06/22 01:31:10;;;;;;;;;;;27.40;46.00;;;;;;1581834;74;678;-74
2021/06/22 01:33:12;;;;;;;;;;;27.40;46.00;;;;;;1582292;74;1115;-75
2021/06/22 01:35:14;;;;;;;;;;;27.40;45.90;;;;;;1581438;74;811;-76
2021/06/22 01:37:16;;;;;;;;;;;27.40;46.00;;;;;;1581993;74;836;-73
2021/06/22 01:39:17;;;;;;;;;;;27.40;46.00;;;;;;1557467;74;791;-75
2021/06/22 01:41:19;;;;;;;;;;;27.50;46.00;;;;;;1574640;74;849;-74
2021/06/22 01:43:24;;;;;;;;;;;27.40;46.00;;;;;;1585667;74;1110;-75
2021/06/22 01:45:26;;;;;;;;;;;27.40;46.00;;;;;;1582177;74;732;-76
2021/06/22 01:47:28;;;;;;;;;;;27.40;46.00;;;;;;1573097;74;1947;-75
2021/06/22 01:49:30;;;;;;;;;;;27.40;46.00;;;;;;1576533;74;739;-72
2021/06/22 01:51:32;;;;;;;;;;;27.40;46.00;;;;;;1572603;74;728;-72
2021/06/22 01:53:34;;;;;;;;;;;27.40;46.00;;;;;;1575573;74;1145;-71
2021/06/22 01:57:39;;;;;;;;;;;27.40;46.00;;;;;;1573051;74;722;-73
2021/06/22 01:59:41;;;;;;;;;;;27.40;46.00;;;;;;1580354;74;779;-72
2021/06/22 02:01:43;;;;;;;;;;;27.40;46.00;;;;;;1575667;74;803;-71
2021/06/22 02:03:45;;;;;;;;;;;27.40;45.80;;;;;;1573197;74;1113;-72
2021/06/22 02:05:48;;;;;;;;;;;27.40;45.90;;;;;;1571950;74;1898;-73
2021/06/22 02:07:49;;;;;;;;;;;27.40;46.00;;;;;;1575162;74;732;-70
2021/06/22 02:09:51;;;;;;;;;;;27.40;46.10;;;;;;1576819;74;784;-70
2021/06/22 02:11:53;;;;;;;;;;;27.40;46.00;;;;;;1576426;74;1135;-71
2021/06/22 02:13:55;;;;;;;;;;;27.50;46.20;;;;;;1573681;74;726;-70
2021/06/22 02:15:57;;;;;;;;;;;27.40;46.10;;;;;;1569776;74;766;-70
2021/06/22 02:17:59;;;;;;;;;;;27.40;46.20;;;;;;1572209;74;951;-71
2021/06/22 02:20:01;;;;;;;;;;;27.50;46.30;;;;;;1576473;74;697;-70
2021/06/22 02:22:03;;;;;;;;;;;27.40;46.20;;;;;;1578742;74;1186;-71
2021/06/22 02:24:05;;;;;;;;;;;27.40;46.00;;;;;;1578553;74;630;-70
2021/06/22 02:26:07;;;;;;;;;;;27.40;46.00;;;;;;1578324;74;1939;-72
2021/06/22 02:28:10;;;;;;;;;;;27.40;46.00;;;;;;1577484;74;777;-74
2021/06/22 02:30:13;;;;;;;;;;;27.40;46.20;;;;;;1574606;74;809;-75
2021/06/22 02:32:15;;;;;;;;;;;27.40;46.20;;;;;;1577306;74;1133;-73
2021/06/22 02:34:17;;;;;;;;;;;27.40;46.40;;;;;;1580230;74;773;-75
2021/06/22 02:36:23;;;;;;;;;;;27.40;46.30;;;;;;1577961;74;738;-75
2021/06/22 02:38:22;;;;;;;;;;;27.40;46.30;;;;;;1577780;74;1638;-76
2021/06/22 02:40:24;;;;;;;;;;;27.40;46.30;;;;;;1578651;74;742;-77
2021/06/22 02:42:26;;;;;;;;;;;27.40;46.30;;;;;;1579944;74;1128;-76
2021/06/22 02:44:28;;;;;;;;;;;27.40;46.20;;;;;;1579786;74;728;-76
2021/06/22 02:46:30;;;;;;;;;;;27.40;46.20;;;;;;1574334;74;1954;-76
2021/06/22 02:48:32;;;;;;;;;;;27.40;46.30;;;;;;1579178;74;802;-76
2021/06/22 02:50:34;;;;;;;;;;;27.40;46.20;;;;;;1577069;74;775;-76
2021/06/22 02:52:36;;;;;;;;;;;27.40;46.20;;;;;;1571006;74;1138;-76
2021/06/22 02:54:38;;;;;;;;;;;27.40;46.00;;;;;;1572364;74;714;-76
2021/06/22 02:56:40;;;;;;;;;;;27.40;46.10;;;;;;1571082;74;729;-74
2021/06/22 02:58:42;;;;;;;;;;;27.40;46.00;;;;;;1572901;74;804;-73
2021/06/22 03:00:43;;;;;;;;;;;27.30;46.30;;;;;;1566473;74;705;-75
2021/06/22 03:02:45;;;;;;;;;;;27.40;46.20;;;;;;1570630;74;1141;-75
2021/06/22 03:04:47;;;;;;;;;;;27.40;46.30;;;;;;1580339;74;792;-73
2021/06/22 03:06:49;;;;;;;;;;;27.40;46.30;;;;;;1577262;74;1930;-74
2021/06/22 03:08:51;;;;;;;;;;;27.40;46.40;;;;;;1576595;74;725;-71
2021/06/22 03:10:53;;;;;;;;;;;27.40;46.40;;;;;;1580700;74;737;-71
2021/06/22 03:12:55;;;;;;;;;;;27.40;46.40;;;;;;1577320;74;1177;-70
2021/06/22 03:14:56;;;;;;;;;;;27.40;46.40;;;;;;1574673;74;764;-69
2021/06/22 03:16:58;;;;;;;;;;;27.40;46.40;;;;;;1576559;74;858;-70
2021/06/22 03:19:00;;;;;;;;;;;27.40;46.40;;;;;;1574472;74;680;-72
2021/06/22 03:21:02;;;;;;;;;;;27.40;46.30;;;;;;1577808;74;798;-74
2021/06/22 03:23:04;;;;;;;;;;;27.40;46.40;;;;;;1575705;74;1110;-72
2021/06/22 03:25:06;;;;;;;;;;;27.40;46.30;;;;;;1575049;74;816;-72
2021/06/22 03:27:08;;;;;;;;;;;27.40;46.30;;;;;;1579667;74;1921;-73
2021/06/22 03:29:10;;;;;;;;;;;27.40;46.30;;;;;;1575059;74;735;-73
2021/06/22 03:31:12;;;;;;;;;;;27.40;46.40;;;;;;1577522;74;774;-72
2021/06/22 03:33:14;;;;;;;;;;;27.40;46.40;;;;;;1575116;74;1112;-71
2021/06/22 03:35:16;;;;;;;;;;;27.40;46.50;;;;;;1577596;74;785;-68
2021/06/22 03:37:18;;;;;;;;;;;27.40;46.50;;;;;;1574910;74;763;-71
2021/06/22 03:39:20;;;;;;;;;;;27.40;46.50;;;;;;1572414;74;771;-70
2021/06/22 03:41:22;;;;;;;;;;;27.40;46.50;;;;;;1578120;74;675;-71
2021/06/22 03:43:23;;;;;;;;;;;27.30;46.40;;;;;;1578034;74;1125;-70
2021/06/22 03:45:27;;;;;;;;;;;27.40;46.50;;;;;;1570113;74;679;-70
2021/06/22 03:47:29;;;;;;;;;;;27.40;46.50;;;;;;1576675;74;1916;-69
2021/06/22 03:49:31;;;;;;;;;;;27.40;46.50;;;;;;1574363;74;773;-74
2021/06/22 03:51:33;;;;;;;;;;;27.40;46.50;;;;;;1576963;74;738;-72
2021/06/22 03:53:37;;;;;;;;;;;27.30;46.50;;;;;;1577605;74;1148;-75
2021/06/22 03:55:38;;;;;;;;;;;27.30;46.50;;;;;;1572989;74;1502;-75
2021/06/22 03:57:40;;;;;;;;;;;27.30;46.50;;;;;;1573992;74;710;-71
2021/06/22 03:59:42;;;;;;;;;;;27.30;46.50;;;;;;1575515;74;741;-69
2021/06/22 04:01:44;;;;;;;;;;;27.30;46.60;;;;;;1572827;74;736;-72
2021/06/22 04:03:46;;;;;;;;;;;27.30;46.50;;;;;;1572299;74;1085;-67
2021/06/22 04:05:47;;;;;;;;;;;27.30;46.60;;;;;;1572620;74;805;-67
2021/06/22 04:07:49;;;;;;;;;;;27.40;46.70;;;;;;1569410;74;1945;-67
2021/06/22 04:09:51;;;;;;;;;;;27.40;46.60;;;;;;1568175;74;750;-69
2021/06/22 04:11:55;;;;;;;;;;;27.40;46.60;;;;;;1580467;74;1193;-70
2021/06/22 04:13:57;;;;;;;;;;;27.40;46.50;;;;;;1570204;74;951;-68
2021/06/22 04:15:59;;;;;;;;;;;27.40;46.60;;;;;;1595427;74;800;-67
2021/06/22 04:18:04;;;;;;;;;;;27.40;46.50;;;;;;1573679;74;716;-67
2021/06/22 04:20:06;;;;;;;;;;;27.40;46.50;;;;;;1569571;74;726;-68
2021/06/22 04:22:08;;;;;;;;;;;27.40;46.50;;;;;;1567959;74;1143;-67
2021/06/22 04:24:10;;;;;;;;;;;27.40;46.40;;;;;;1571964;74;688;-69
2021/06/22 04:26:12;;;;;;;;;;;27.30;46.40;;;;;;1575701;74;772;-70
2021/06/22 04:28:14;;;;;;;;;;;27.40;46.40;;;;;;1576236;74;1943;-67
2021/06/22 04:30:16;;;;;;;;;;;27.40;46.30;;;;;;1577935;74;780;-66
2021/06/22 04:32:18;;;;;;;;;;;27.40;46.30;;;;;;1577765;74;1132;-66
2021/06/22 04:34:19;;;;;;;;;;;27.40;46.30;;;;;;1564352;74;822;-67
2021/06/22 04:36:21;;;;;;;;;;;27.40;46.40;;;;;;1572120;74;779;-68
2021/06/22 04:38:23;;;;;;;;;;;27.40;46.40;;;;;;1573636;74;786;-69
2021/06/22 04:40:25;;;;;;;;;;;27.40;46.40;;;;;;1580488;73;807;-71
2021/06/22 04:42:27;;;;;;;;;;;27.40;46.30;;;;;;1577174;74;1130;-68
2021/06/22 04:44:29;;;;;;;;;;;27.40;46.30;;;;;;1579635;74;800;-69
2021/06/22 04:46:31;;;;;;;;;;;27.40;46.40;;;;;;1573695;74;706;-67
2021/06/22 04:48:32;;;;;;;;;;;27.40;46.30;;;;;;1582152;74;1979;-68
2021/06/22 04:50:34;;;;;;;;;;;27.30;46.30;;;;;;1566495;73;773;-67
2021/06/22 04:52:36;;;;;;;;;;;27.40;46.40;;;;;;1573125;74;1147;-67
2021/06/22 04:54:39;;;;;;;;;;;27.40;46.40;;;;;;1579268;74;762;-67
2021/06/22 04:56:41;;;;;;;;;;;27.40;46.40;;;;;;1586282;74;784;-69
2021/06/22 04:58:44;;;;;;;;;;;27.40;46.40;;;;;;1571977;74;989;-69
2021/06/22 05:00:46;;;;;;;;;;;27.40;46.40;;;;;;1583121;74;808;-71
2021/06/22 05:02:48;;;;;;;;;;;27.40;46.40;;;;;;1592026;71;221463;-68
2021/06/22 05:04:51;;;;;;;;;;;27.30;46.40;;;;;;1626003;71;701;-68
2021/06/22 05:06:53;;;;;;;;;;;27.40;46.40;;;;;;1632766;71;1935;-69
2021/06/22 05:08:55;;;;;;;;;;;27.40;46.40;;;;;;1626836;71;741;-70
2021/06/22 05:10:56;;;;;;;;;;;27.40;46.40;;;;;;1624877;72;747;-68
2021/06/22 05:12:58;;;;;;;;;;;27.40;46.30;;;;;;1611835;71;1243;-68
2021/06/22 05:15:00;;;;;;;;;;;27.40;46.40;;;;;;1568444;74;664;-69
2021/06/22 05:17:02;;;;;;;;;;;27.40;46.50;;;;;;1572853;74;830;-68
2021/06/22 05:19:04;;;;;;;;;;;27.40;46.40;;;;;;1545678;76;671;-70
2021/06/22 05:21:06;;;;;;;;;;;27.40;46.40;;;;;;1532956;76;776;-67
2021/06/22 05:23:08;;;;;;;;;;;27.40;46.40;;;;;;1541501;75;1144;-69
2021/06/22 05:25:10;;;;;;;;;;;27.40;46.40;;;;;;1543943;75;672;-68
2021/06/22 05:27:13;;;;;;;;;;;27.30;46.40;;;;;;1575667;74;1932;-69
2021/06/22 05:29:14;;;;;;;;;;;27.40;46.50;;;;;;1540959;76;736;-71
2021/06/22 05:31:17;;;;;;;;;;;27.40;46.50;;;;;;1535903;76;768;-70
2021/06/22 05:33:18;;;;;;;;;;;27.40;46.40;;;;;;1568386;74;1132;-69
2021/06/22 05:35:20;;;;;;;;;;;27.40;46.40;;;;;;1576170;74;751;-73
2021/06/22 05:37:24;;;;;;;;;;;27.40;46.40;;;;;;1543721;75;770;-67
2021/06/22 05:39:26;;;;;;;;;;;27.30;46.40;;;;;;1576468;74;815;-67
2021/06/22 05:41:28;;;;;;;;;;;27.30;46.50;;;;;;1576560;74;789;-67
2021/06/22 05:43:30;;;;;;;;;;;27.30;46.60;;;;;;1541819;76;1143;-67
2021/06/22 05:45:31;;;;;;;;;;;27.30;46.30;;;;;;1561844;74;766;-68
2021/06/22 05:47:33;;;;;;;;;;;27.30;46.60;;;;;;1562092;74;1923;-67
2021/06/22 05:49:35;;;;;;;;;;;27.30;46.60;;;;;;1551277;74;771;-67
2021/06/22 05:51:37;;;;;;;;;;;27.40;46.60;;;;;;1563710;74;799;-64
2021/06/22 05:53:39;;;;;;;;;;;27.30;46.50;;;;;;1568380;74;1206;-65
2021/06/22 05:55:41;;;;;;;;;;;27.30;46.60;;;;;;1565255;74;796;-65
2021/06/22 05:57:47;;;;;;;;;;;27.40;46.40;;;;;;1567769;74;750;-66
2021/06/22 05:59:49;;;;;;;;;;;27.40;46.20;;;;;;1562070;74;801;-68
2021/06/22 06:01:51;;;;;;;;;;;27.40;46.30;;;;;;1533617;76;834;-68
2021/06/22 06:03:53;;;;;;;;;;;27.30;46.50;;;;;;1582046;74;1191;-68
2021/06/22 06:05:54;;;;;;;;;;;27.10;46.90;;;;;;1568917;74;838;-69
2021/06/22 06:07:56;;;;;;;;;;;27.20;46.70;;;;;;1565322;74;1924;-71
2021/06/22 06:09:58;;;;;;;;;;;27.30;46.50;;;;;;1566222;74;797;-68
2021/06/22 06:12:00;;;;;;;;;;;27.20;46.70;;;;;;1567624;74;774;-68
2021/06/22 06:14:02;;;;;;;;;;;27.30;46.60;;;;;;1575610;74;1108;-68
2021/06/22 06:16:05;;;;;;;;;;;27.30;46.60;;;;;;1543110;76;700;-70
2021/06/22 06:18:06;;;;;;;;;;;27.30;46.50;;;;;;1571622;74;773;-69
2021/06/22 06:20:09;;;;;;;;;;;27.30;46.40;;;;;;1560888;74;677;-69
2021/06/22 06:22:11;;;;;;;;;;;27.30;46.40;;;;;;1568861;74;1192;-70
2021/06/22 06:24:13;;;;;;;;;;;27.20;46.40;;;;;;1553575;74;832;-69
2021/06/22 06:26:18;;;;;;;;;;;27.30;46.30;;;;;;1554454;74;764;-72
2021/06/22 06:28:22;;;;;;;;;;;27.30;46.30;;;;;;1555907;74;1920;-69
2021/06/22 06:30:24;;;;;;;;;;;27.20;46.30;;;;;;1524987;76;1786;-70
2021/06/22 06:32:26;;;;;;;;;;;27.30;46.30;;;;;;1568171;74;1111;-67
2021/06/22 06:34:28;;;;;;;;;;;27.30;46.30;;;;;;1542377;75;725;-69
2021/06/22 06:36:30;;;;;;;;;;;27.30;46.30;;;;;;1563044;74;864;-71
2021/06/22 06:38:32;;;;;;;;;;;27.20;46.20;;;;;;1537766;75;781;-69
2021/06/22 06:40:35;;;;;;;;;;;27.20;46.20;;;;;;1569499;74;756;-69
2021/06/22 06:42:37;;;;;;;;;;;27.20;46.10;;;;;;1550255;76;1097;-70
2021/06/22 06:44:39;;;;;;;;;;;27.20;46.20;;;;;;1562031;74;722;-70
2021/06/22 06:46:41;;;;;;;;;;;27.20;46.10;;;;;;1541310;75;777;-68
2021/06/22 06:48:43;;;;;;;;;;;27.20;46.20;;;;;;1592963;73;1957;-72
2021/06/22 06:50:45;;;;;;;;;;;27.20;46.20;;;;;;1555801;74;777;-65
2021/06/22 06:52:47;;;;;;;;;;;27.10;46.50;;;;;;1543212;75;1196;-65
2021/06/22 06:54:49;;;;;;;;;;;27.10;46.80;;;;;;1571780;74;807;-67
2021/06/22 06:56:51;;;;;;;;;;;27.10;47.00;;;;;;1571462;74;802;-67
2021/06/22 06:58:53;;;;;;;;;;;27.00;47.50;;;;;;1537626;76;722;-66
2021/06/22 07:00:55;;;;;;;;;;;27.10;47.60;;;;;;1537358;75;676;-66
2021/06/22 07:02:57;;;;;;;;;;;27.00;47.50;;;;;;1575610;74;1135;-66
2021/06/22 07:04:59;;;;;;;;;;;26.90;47.00;;;;;;1568618;74;774;-66
2021/06/22 07:07:01;;;;;;;;;;;27.10;47.40;;;;;;1573369;74;661;-66
2021/06/22 07:09:02;;;;;;;;;;;27.20;47.00;;;;;;1566192;74;1938;-66
2021/06/22 07:11:04;;;;;;;;;;;27.10;47.10;;;;;;1567127;74;697;-68
2021/06/22 07:13:13;;;;;;;;;;;26.90;46.90;;;;;;1546027;74;1147;-68
2021/06/22 07:15:10;;;;;;;;;;;26.90;47.10;;;;;;1567355;74;1507;-66
2021/06/22 07:17:12;;;;;;;;;;;27.00;47.80;;;;;;1569710;74;745;-66
2021/06/22 07:19:14;;;;;;;;;;;26.90;47.10;;;;;;1566799;74;698;-64
2021/06/22 07:21:16;;;;;;;;;;;26.90;47.10;;;;;;1566336;75;788;-63
2021/06/22 07:23:18;;;;;;;;;;;26.90;47.10;;;;;;1558070;74;1115;-66
2021/06/22 07:25:20;;;;;;;;;;;26.80;47.30;;;;;;1564319;74;758;-66
2021/06/22 07:27:22;;;;;;;;;;;27.00;47.80;;;;;;1567731;74;768;-68
2021/06/22 07:29:24;;;;;;;;;;;27.00;47.70;;;;;;1532740;76;1940;-65
2021/06/22 07:31:26;;;;;;;;;;;27.00;47.50;;;;;;1560085;74;1029;-66
2021/06/22 07:33:28;;;;;;;;;;;27.10;47.30;;;;;;1561530;74;1162;-66
2021/06/22 07:35:32;;;;;;;;;;;27.20;46.80;;;;;;1562932;74;770;-68
2021/06/22 07:37:33;;;;;;;;;;;27.20;46.40;;;;;;1561056;74;1747;-64
2021/06/22 07:39:35;;;;;;;;;;;27.20;46.50;;;;;;1563281;74;780;-69
2021/06/22 07:41:37;;;;;;;;;;;27.20;46.40;;;;;;1561775;74;645;-65
2021/06/22 07:43:39;;;;;;;;;;;27.30;46.20;;;;;;1560508;74;1131;-66
2021/06/22 07:45:41;;;;;;;;;;;27.30;46.00;;;;;;1546063;74;806;-68
2021/06/22 07:47:43;;;;;;;;;;;27.30;46.10;;;;;;1555773;74;1936;-65
2021/06/22 07:49:45;;;;;;;;;;;27.20;46.40;;;;;;1562728;74;701;-65
2021/06/22 07:51:47;;;;;;;;;;;27.30;46.30;;;;;;1559298;74;825;-65
2021/06/22 07:53:49;;;;;;;;;;;27.20;46.30;;;;;;1579094;74;1161;-67
2021/06/22 07:55:51;;;;;;;;;;;27.20;46.30;;;;;;1573333;74;726;-69
2021/06/22 07:57:53;;;;;;;;;;;27.10;45.90;;;;;;1574326;74;790;-66
2021/06/22 07:59:55;;;;;;;;;;;27.10;46.00;;;;;;1579329;74;823;-66
2021/06/22 08:01:56;;;;;;;;;;;27.10;46.10;;;;;;1574401;74;765;-63
2021/06/22 08:03:58;;;;;;;;;;;27.10;46.30;;;;;;1574529;74;1089;-66
2021/06/22 08:06:00;;;;;;;;;;;27.10;46.50;;;;;;1553444;74;810;-66
2021/06/22 08:08:02;;;;;;;;;;;27.20;46.30;;;;;;1541164;75;1931;-66
2021/06/22 08:10:04;;;;;;;;;;;27.20;46.40;;;;;;1574907;74;729;-68
2021/06/22 08:12:06;;;;;;;;;;;27.20;46.40;;;;;;1575086;74;819;-68
2021/06/22 08:14:08;;;;;;;;;;;27.20;46.40;;;;;;1559647;74;1246;-65
2021/06/22 08:16:10;;;;;;;;;;;27.30;46.20;;;;;;1556882;74;831;-69
2021/06/22 08:18:12;;;;;;;;;;;27.30;46.10;;;;;;1557099;74;789;-65
2021/06/22 08:20:14;;;;;;;;;;;27.20;46.10;;;;;;1542197;75;844;-66
2021/06/22 08:22:16;;;;;;;;;;;27.20;46.20;;;;;;1566651;74;1152;-68
2021/06/22 08:24:18;;;;;;;;;;;27.30;46.20;;;;;;1533618;76;784;-65
2021/06/22 08:26:20;;;;;;;;;;;27.20;45.90;;;;;;1597978;73;792;-66
2021/06/22 08:28:22;;;;;;;;;;;27.40;45.90;;;;;;1557233;74;1938;-66
2021/06/22 08:30:24;;;;;;;;;;;27.30;45.60;;;;;;1568432;74;744;-69
2021/06/22 08:32:26;;;;;;;;;;;27.30;45.60;;;;;;1541375;75;1138;-64
2021/06/22 08:34:29;;;;;;;;;;;27.30;45.70;;;;;;1528530;76;905;-71
2021/06/22 08:36:30;;;;;;;;;;;27.10;45.80;;;;;;1566401;74;766;-69
2021/06/22 08:38:32;;;;;;;;;;;27.20;45.90;;;;;;1558650;74;726;-66
2021/06/22 08:40:34;;;;;;;;;;;27.30;45.90;;;;;;1550452;74;736;-68
2021/06/22 08:42:37;;;;;;;;;;;27.30;45.90;;;;;;1558884;74;1133;-65
2021/06/22 08:44:39;;;;;;;;;;;27.20;45.80;;;;;;1539451;75;815;-65
2021/06/22 08:46:41;;;;;;;;;;;27.30;45.80;;;;;;1567195;74;790;-65
2021/06/22 08:48:43;;;;;;;;;;;27.30;45.70;;;;;;1549840;74;1944;-64
2021/06/22 08:50:45;;;;;;;;;;;27.10;45.70;;;;;;1554371;74;666;-67
2021/06/22 08:52:47;;;;;;;;;;;27.20;45.80;;;;;;1557381;74;1152;-65
2021/06/22 08:54:49;;;;;;;;;;;27.30;45.60;;;;;;1565732;74;756;-67
2021/06/22 08:56:52;;;;;;;;;;;27.30;45.40;;;;;;1569035;74;762;-68
2021/06/22 08:58:54;;;;;;;;;;;27.20;45.50;;;;;;1563055;74;780;-65
2021/06/22 09:00:56;;;;;;;;;;;27.20;45.60;;;;;;1573637;74;781;-65
2021/06/22 09:03:06;;;;;;;;;;;27.30;45.70;;;;;;1571703;74;1044;-63
2021/06/22 09:05:07;;;;;;;;;;;27.20;45.70;;;;;;1565865;74;1834;-65
2021/06/22 09:07:09;;;;;;;;;;;27.30;45.60;;;;;;1560287;74;660;-67
2021/06/22 09:09:11;;;;;;;;;;;27.20;45.60;;;;;;1579652;74;1952;-64
2021/06/22 09:11:14;;;;;;;;;;;27.30;45.40;;;;;;1533315;76;832;-64
2021/06/22 09:13:23;;;;;;;;;;;27.30;45.40;;;;;;1568583;74;1180;-66
2021/06/22 09:15:29;;;;;;;;;;;27.20;45.30;;;;;;1579446;74;818;-63
2021/06/22 09:17:34;;;;;;;;;;;27.20;45.50;;;;;;1566896;74;798;-64
2021/06/22 09:19:37;;;;;;;;;;;27.20;45.50;;;;;;1568948;74;953;-65
2021/06/22 09:21:40;;;;;;;;;;;27.20;45.70;;;;;;1540169;75;811;-64
2021/06/22 09:23:42;;;;;;;;;;;27.20;45.60;;;;;;1568464;74;1167;-63
2021/06/22 09:25:45;;;;;;;;;;;27.30;45.70;;;;;;1566486;74;784;-64
2021/06/22 09:27:51;;;;;;;;;;;27.40;45.40;;;;;;1568191;74;792;-64
2021/06/22 09:29:53;;;;;;;;;;;27.30;45.50;;;;;;1567207;74;1930;-65
2021/06/22 09:31:58;;;;;;;;;;;27.30;45.50;;;;;;1541166;75;727;-63
2021/06/22 09:34:00;;;;;;;;;;;27.30;45.50;;;;;;1564763;74;1127;-64
2021/06/22 09:36:03;;;;;;;;;;;27.40;45.40;;;;;;1566368;74;887;-64
2021/06/22 09:38:05;;;;;;;;;;;27.30;45.40;;;;;;1559947;74;716;-63
2021/06/22 09:40:07;;;;;;;;;;;27.30;45.50;;;;;;1564308;74;745;-64
2021/06/22 09:42:12;;;;;;;;;;;27.20;45.60;;;;;;1559203;74;730;-63
2021/06/22 09:44:13;;;;;;;;;;;27.10;45.50;;;;;;1556738;74;1711;-63
2021/06/22 09:46:17;;;;;;;;;;;27.10;45.60;;;;;;1570134;74;737;-67
2021/06/22 09:48:20;;;;;;;;;;;27.20;45.70;;;;;;1535050;75;817;-64
2021/06/22 09:50:36;;;;;;;;;;;27.20;45.60;;;;;;1540135;76;2017;-65
2021/06/22 09:52:37;;;;;;;;;;;27.20;45.50;;;;;;1564993;74;1124;-63
2021/06/22 09:54:44;;;;;;;;;;;27.10;45.30;;;;;;1561182;74;787;-65
2021/06/22 09:56:56;;;;;;;;;;;27.00;45.50;;;;;;1575855;74;799;-63
2021/06/22 09:58:58;;;;;;;;;;;27.00;45.70;;;;;;1561778;74;678;-63
2021/06/22 10:00:59;;;;;;;;;;;27.10;45.60;;;;;;1569699;74;786;-64
2021/06/22 10:03:01;;;;;;;;;;;27.00;45.70;;;;;;1553779;74;1165;-64
2021/06/22 10:05:05;;;;;;;;;;;27.20;45.70;;;;;;1546455;75;692;-64
2021/06/22 10:07:08;;;;;;;;;;;27.20;45.60;;;;;;1540950;75;802;-64
2021/06/22 10:09:10;;;;;;;;;;;27.10;45.50;;;;;;1586146;74;1943;-64
2021/06/22 10:11:14;;;;;;;;;;;27.20;45.70;;;;;;1568039;74;689;-64
2021/06/22 10:13:34;;;;;;;;;;;27.20;45.60;;;;;;1541610;75;1631;-64
2021/06/22 10:15:36;;;;;;;;;;;27.10;45.60;;;;;;1535736;75;704;-64
2021/06/22 10:17:38;;;;;;;;;;;27.10;45.90;;;;;;1563774;74;693;-70
2021/06/22 10:19:40;;;;;;;;;;;27.10;45.80;;;;;;1571194;74;807;-63
2021/06/22 10:21:41;;;;;;;;;;;27.10;45.90;;;;;;1565037;74;760;-61
2021/06/22 10:23:44;;;;;;;;;;;27.10;45.90;;;;;;1538837;75;1133;-61
2021/06/22 10:25:45;;;;;;;;;;;27.10;46.30;;;;;;1545234;75;785;-63
2021/06/22 10:27:50;;;;;;;;;;;27.00;46.40;;;;;;1545790;75;802;-63
2021/06/22 10:29:53;;;;;;;;;;;27.00;46.60;;;;;;1575673;74;1914;-67
2021/06/22 10:31:56;;;;;;;;;;;27.00;46.50;;;;;;1562632;74;749;-63
2021/06/22 10:33:58;;;;;;;;;;;27.10;46.40;;;;;;1570598;74;1124;-64
2021/06/22 10:36:00;;;;;;;;;;;27.00;46.20;;;;;;1571585;74;785;-64
2021/06/22 10:38:07;;;;;;;;;;;26.90;45.70;;;;;;1581037;74;774;-63
2021/06/22 10:40:07;;;;;;;;;;;26.90;45.90;;;;;;1570914;74;1582;-66
2021/06/22 10:42:13;;;;;;;;;;;27.00;46.30;;;;;;1537411;75;1833;-63
2021/06/22 10:44:27;;;;;;;;;;;26.80;45.50;;;;;;1536792;75;722;-68
2021/06/22 10:46:29;;;;;;;;;;;26.90;45.80;;;;;;1529437;76;780;-63
2021/06/22 10:48:41;;;;;;;;;;;26.90;45.80;;;;;;1565539;74;822;-64
2021/06/22 10:50:43;;;;;;;;;;;26.90;45.60;;;;;;1565118;74;1903;-62
2021/06/22 10:52:47;;;;;;;;;;;26.70;45.50;;;;;;1567267;73;1143;-63
2021/06/22 10:54:50;;;;;;;;;;;26.80;45.70;;;;;;1527481;75;734;-62
2021/06/22 10:56:52;;;;;;;;;;;26.70;45.70;;;;;;1539627;76;774;-63
2021/06/22 10:59:19;;;;;;;;;;;26.80;45.80;;;;;;1571376;74;753;-66
2021/06/22 11:01:18;;;;;;;;;;;26.90;45.60;;;;;;1540409;75;1566;-63
2021/06/22 11:03:20;;;;;;;;;;;27.00;46.10;;;;;;1547954;72;2090;-68
2021/06/22 11:05:22;;;;;;;;;;;27.10;46.00;;;;;;1579225;74;762;-68
2021/06/22 11:07:24;;;;;;;;;;;27.10;45.80;;;;;;1531435;76;814;-68
2021/06/22 11:09:26;;;;;;;;;;;27.10;45.70;;;;;;1558968;74;1927;-68
2021/06/22 11:11:28;;;;;;;;;;;27.10;45.50;;;;;;1566055;74;760;-68
2021/06/22 11:13:34;;;;;;;;;;;27.20;45.50;;;;;;1580723;73;1222;-68
2021/06/22 11:15:49;;;;;;;;;;;27.40;45.20;;;;;;1590758;73;727;-66
2021/06/22 11:17:53;;;;;;;;;;;27.40;45.20;;;;;;1584494;73;710;-68
2021/06/22 11:20:04;;;;;;;;;;;27.40;45.20;;;;;;1589196;73;903;-69
2021/06/22 11:22:06;;;;;;;;;;;27.50;45.20;;;;;;1561192;74;837;-67
2021/06/22 11:24:09;;;;;;;;;;;27.40;45.20;;;;;;1572903;73;1229;-68
2021/06/22 11:26:11;;;;;;;;;;;27.50;45.10;;;;;;1589895;73;706;-68
2021/06/22 11:28:13;;;;;;;;;;;27.50;45.00;;;;;;1590757;73;805;-68
2021/06/22 11:30:15;;;;;;;;;;;27.50;45.10;;;;;;1585976;73;1931;-67
2021/06/22 11:32:28;;;;;;;;;;;27.50;45.10;;;;;;1584854;73;758;-68
2021/06/22 11:34:32;;;;;;;;;;;27.40;45.00;;;;;;1573955;73;1797;-68
2021/06/22 11:36:34;;;;;;;;;;;27.50;45.20;;;;;;1568424;73;1673;-68
2021/06/22 11:38:36;;;;;;;;;;;27.40;45.20;;;;;;1572255;73;803;-67
2021/06/22 11:40:40;;;;;;;;;;;27.20;45.80;;;;;;1581178;74;775;-69
2021/06/22 11:42:43;;;;;;;;;;;27.40;45.80;;;;;;1571490;73;1673;-70
2021/06/22 11:44:46;;;;;;;;;;;27.30;45.90;;;;;;1571716;73;732;-71
2021/06/22 11:46:48;;;;;;;;;;;27.40;45.80;;;;;;1579591;73;765;-70
2021/06/22 11:48:56;;;;;;;;;;;27.40;45.60;;;;;;1580523;73;694;-71
2021/06/22 11:50:58;;;;;;;;;;;27.50;45.50;;;;;;1568967;73;1888;-79
2021/06/22 11:53:00;;;;;;;;;;;27.50;45.60;;;;;;1576971;73;1156;-70
2021/06/22 11:55:25;;;;;;;;;;;27.50;45.50;;;;;;1564576;73;746;-71
2021/06/22 11:57:15;;;;;;;;;;;27.40;45.80;;;;;;1563354;73;1343;-69
2021/06/22 11:59:17;;;;;;;;;;;27.20;45.70;;;;;;1562170;73;1797;-71
2021/06/22 12:01:19;;;;;;;;;;;27.00;46.00;;;;;;1575546;73;781;-69
2021/06/22 12:03:23;;;;;;;;;;;26.90;45.80;;;;;;1577031;73;1186;-70
2021/06/22 12:05:25;;;;;;;;;;;27.00;46.80;;;;;;1575040;73;1862;-70
2021/06/22 12:07:27;;;;;;;;;;;26.90;46.00;;;;;;1583594;73;773;-69
2021/06/22 12:09:29;;;;;;;;;;;27.10;46.20;;;;;;1580901;73;1947;-69
2021/06/22 12:11:31;;;;;;;;;;;27.10;46.00;;;;;;1582682;73;775;-69
2021/06/22 12:13:35;;;;;;;;;;;27.10;45.80;;;;;;1581011;73;1169;-69